createdAt,value
2023-05-12T00:01:17.252Z,96.34
2023-05-12T00:03:44.128Z,96.14
2023-05-12T00:06:11.326Z,96.44
2023-05-12T00:08:38.034Z,96.56
2023-05-12T00:11:04.583Z,96.67
2023-05-12T00:13:31.341Z,97.06
2023-05-12T00:15:59.363Z,97.07
2023-05-12T00:18:28.198Z,97.18
2023-05-12T00:20:55.231Z,97.35
2023-05-12T00:23:22.699Z,97.24
2023-05-12T00:25:49.891Z,97.52
2023-05-12T00:28:17.819Z,97.62
2023-05-12T00:30:44.358Z,97.54
2023-05-12T00:33:11.129Z,97.79
2023-05-12T00:35:37.552Z,98.08
2023-05-12T00:38:04.035Z,98.04
2023-05-12T00:40:30.501Z,98.19
2023-05-12T00:42:57.024Z,98.23
2023-05-12T00:45:23.823Z,98.13
2023-05-12T00:47:52.342Z,98.20
2023-05-12T00:50:19.180Z,98.09
2023-05-12T00:52:47.072Z,98.07
2023-05-12T00:55:13.506Z,98.52
2023-05-12T00:57:41.105Z,98.46
2023-05-12T01:00:08.824Z,98.55
2023-05-12T01:02:36.532Z,98.89
2023-05-12T01:05:04.219Z,98.82
2023-05-12T01:07:32.998Z,99.05
2023-05-12T01:09:59.605Z,98.63
2023-05-12T01:12:27.146Z,98.79
2023-05-12T01:14:56.259Z,98.97
2023-05-12T01:17:32.085Z,99.06
2023-05-12T01:20:04.656Z,99.11
2023-05-12T01:22:33.551Z,99.24
2023-05-12T01:25:09.831Z,99.39
2023-05-12T01:27:39.705Z,99.29
2023-05-12T01:30:06.966Z,99.53
2023-05-12T01:32:34.444Z,99.72
2023-05-12T01:35:00.940Z,99.93
2023-05-12T01:37:27.536Z,99.97
2023-05-12T01:39:55.079Z,100.00
2023-05-12T01:42:21.625Z,100.00
2023-05-12T01:44:48.080Z,100.00
2023-05-12T01:47:15.957Z,100.00
2023-05-12T01:49:42.733Z,100.00
2023-05-12T01:52:09.253Z,100.00
2023-05-12T01:54:36.067Z,100.00
2023-05-12T01:57:02.667Z,100.00
2023-05-12T01:59:28.996Z,100.00
2023-05-12T02:01:55.550Z,100.00
2023-05-12T02:04:22.174Z,100.00
2023-05-12T02:06:48.555Z,100.00
2023-05-12T02:09:15.129Z,100.00
2023-05-12T02:11:41.782Z,100.00
2023-05-12T02:14:08.156Z,100.00
2023-05-12T02:16:34.618Z,100.00
2023-05-12T02:19:01.361Z,100.00
2023-05-12T02:21:28.061Z,100.00
2023-05-12T02:23:54.495Z,100.00
2023-05-12T02:26:21.155Z,100.00
2023-05-12T02:28:47.799Z,100.00
2023-05-12T02:31:14.230Z,100.00
2023-05-12T02:33:40.596Z,100.00
2023-05-12T02:36:07.536Z,100.00
2023-05-12T02:38:34.122Z,100.00
2023-05-12T02:41:01.037Z,100.00
2023-05-12T02:43:27.731Z,100.00
2023-05-12T02:45:54.843Z,100.00
2023-05-12T02:48:21.317Z,100.00
2023-05-12T02:50:47.664Z,100.00
2023-05-12T02:53:14.063Z,100.00
2023-05-12T02:55:40.575Z,100.00
2023-05-12T02:58:07.081Z,100.00
2023-05-12T03:00:33.518Z,100.00
2023-05-12T03:03:00.081Z,100.00
2023-05-12T03:05:26.812Z,100.00
2023-05-12T03:07:53.227Z,100.00
2023-05-12T03:10:19.942Z,100.00
2023-05-12T03:12:46.585Z,100.00
2023-05-12T03:15:12.965Z,100.00
2023-05-12T03:17:39.509Z,100.00
2023-05-12T03:20:06.867Z,100.00
2023-05-12T03:22:33.752Z,100.00
2023-05-12T03:25:00.176Z,100.00
2023-05-12T03:27:26.791Z,100.00
2023-05-12T03:29:53.272Z,100.00
2023-05-12T03:32:19.734Z,100.00
2023-05-12T03:34:46.213Z,100.00
2023-05-12T03:37:12.652Z,100.00
2023-05-12T03:39:39.088Z,100.00
2023-05-12T03:42:05.986Z,100.00
2023-05-12T03:44:32.396Z,100.00
2023-05-12T03:46:58.903Z,100.00
2023-05-12T03:49:25.447Z,100.00
2023-05-12T03:51:51.995Z,100.00
2023-05-12T03:54:18.437Z,100.00
2023-05-12T03:56:44.952Z,100.00
2023-05-12T03:59:12.083Z,100.00
2023-05-12T04:01:38.836Z,100.00
2023-05-12T04:04:05.294Z,100.00
2023-05-12T04:06:31.742Z,100.00
2023-05-12T04:08:58.805Z,100.00
2023-05-12T04:11:25.261Z,100.00
2023-05-12T04:13:51.660Z,100.00
2023-05-12T04:16:18.287Z,100.00
2023-05-12T04:18:44.737Z,100.00
2023-05-12T04:21:11.290Z,100.00
2023-05-12T04:23:37.723Z,100.00
2023-05-12T04:26:05.216Z,100.00
2023-05-12T04:28:32.017Z,100.00
2023-05-12T04:31:04.927Z,100.00
2023-05-12T04:33:31.538Z,100.00
2023-05-12T04:35:58.262Z,100.00
2023-05-12T04:38:24.777Z,100.00
2023-05-12T04:40:51.241Z,100.00
2023-05-12T04:45:47.246Z,100.00
2023-05-12T04:48:13.616Z,100.00
2023-05-12T04:50:40.022Z,100.00
2023-05-12T04:53:06.422Z,100.00
2023-05-12T04:55:32.930Z,100.00
2023-05-12T04:57:59.326Z,100.00
2023-05-12T05:00:25.787Z,100.00
2023-05-12T05:02:52.396Z,100.00
2023-05-12T05:05:19.058Z,100.00
2023-05-12T05:07:45.958Z,100.00
2023-05-12T05:10:12.598Z,100.00
2023-05-12T05:12:38.988Z,100.00
2023-05-12T05:15:06.194Z,100.00
2023-05-12T05:17:32.685Z,100.00
2023-05-12T05:19:59.851Z,100.00
2023-05-12T05:22:27.302Z,100.00
2023-05-12T05:24:53.760Z,100.00
2023-05-12T05:27:20.637Z,100.00
2023-05-12T05:29:47.173Z,100.00
2023-05-12T05:32:13.664Z,100.00
2023-05-12T05:34:40.197Z,100.00
2023-05-12T05:37:06.642Z,100.00
2023-05-12T05:39:33.143Z,100.00
2023-05-12T05:41:59.607Z,100.00
2023-05-12T05:44:26.045Z,100.00
2023-05-12T05:46:52.576Z,100.00
2023-05-12T05:49:19.672Z,100.00
2023-05-12T05:51:46.030Z,100.00
2023-05-12T05:54:12.363Z,100.00
2023-05-12T05:56:38.826Z,100.00
2023-05-12T05:59:05.492Z,100.00
2023-05-12T06:01:32.839Z,100.00
2023-05-12T06:03:59.692Z,100.00
2023-05-12T06:06:26.307Z,100.00
2023-05-12T06:08:55.830Z,100.00
2023-05-12T06:11:22.363Z,100.00
2023-05-12T06:13:48.753Z,100.00
2023-05-12T06:16:15.115Z,100.00
2023-05-12T06:18:41.536Z,100.00
2023-05-12T06:21:08.112Z,100.00
2023-05-12T06:23:34.495Z,100.00
2023-05-12T06:26:00.854Z,100.00
2023-05-12T06:28:27.342Z,100.00
2023-05-12T06:30:53.848Z,100.00
2023-05-12T06:33:20.209Z,100.00
2023-05-12T06:35:46.682Z,100.00
2023-05-12T06:38:13.014Z,100.00
2023-05-12T06:40:39.558Z,100.00
2023-05-12T06:43:06.026Z,100.00
2023-05-12T06:45:32.536Z,100.00
2023-05-12T06:47:58.984Z,100.00
2023-05-12T06:50:25.498Z,100.00
2023-05-12T06:52:51.925Z,100.00
2023-05-12T06:55:20.680Z,100.00
2023-05-12T06:57:47.582Z,100.00
2023-05-12T07:00:14.581Z,100.00
2023-05-12T07:02:41.254Z,100.00
2023-05-12T07:05:08.201Z,99.68
2023-05-12T07:07:36.026Z,99.61
2023-05-12T07:10:02.431Z,99.41
2023-05-12T07:12:28.823Z,99.33
2023-05-12T07:14:55.168Z,99.29
2023-05-12T07:17:21.747Z,98.95
2023-05-12T07:19:48.358Z,98.57
2023-05-12T07:22:14.796Z,98.06
2023-05-12T07:24:41.617Z,97.61
2023-05-12T07:27:08.197Z,96.70
2023-05-12T07:29:34.929Z,96.04
2023-05-12T07:32:01.400Z,95.95
2023-05-12T07:34:27.913Z,96.01
2023-05-12T07:36:54.320Z,95.70
2023-05-12T07:39:23.653Z,95.17
2023-05-12T07:41:51.114Z,94.79
2023-05-12T07:44:17.547Z,93.65
2023-05-12T07:46:44.084Z,93.18
2023-05-12T07:49:10.461Z,92.18
2023-05-12T07:51:37.085Z,91.69
2023-05-12T07:54:04.815Z,90.56
2023-05-12T07:56:31.259Z,90.31
2023-05-12T07:58:57.688Z,89.34
2023-05-12T08:01:24.287Z,88.73
2023-05-12T08:03:51.479Z,88.37
2023-05-12T08:06:18.438Z,87.58
2023-05-12T08:08:45.223Z,85.95
2023-05-12T08:11:12.649Z,86.13
2023-05-12T08:13:39.486Z,84.73
2023-05-12T08:16:06.248Z,84.84
2023-05-12T08:18:32.660Z,83.97
2023-05-12T08:20:59.045Z,83.53
2023-05-12T08:23:25.552Z,82.89
2023-05-12T08:25:51.981Z,81.03
2023-05-12T08:28:18.478Z,80.97
2023-05-12T08:30:45.524Z,82.60
2023-05-12T08:33:12.627Z,82.04
2023-05-12T08:35:39.595Z,82.05
2023-05-12T08:38:06.307Z,81.50
2023-05-12T08:40:37.960Z,80.74
2023-05-12T08:43:14.168Z,79.38
2023-05-12T08:45:41.071Z,79.60
2023-05-12T08:48:10.898Z,78.21
2023-05-12T08:50:38.888Z,78.32
2023-05-12T08:53:10.401Z,77.51
2023-05-12T08:55:37.104Z,77.69
2023-05-12T08:58:05.066Z,76.13
2023-05-12T09:00:34.319Z,75.86
2023-05-12T09:03:02.223Z,75.20
2023-05-12T09:05:30.759Z,74.58
2023-05-12T09:08:00.477Z,72.77
2023-05-12T09:10:35.156Z,72.38
2023-05-12T09:13:21.777Z,71.71
2023-05-12T09:15:48.868Z,73.21
2023-05-12T09:18:15.410Z,72.72
2023-05-12T09:20:42.563Z,73.71
2023-05-12T09:23:16.642Z,71.05
2023-05-12T09:25:43.206Z,71.36
2023-05-12T09:28:09.751Z,70.15
2023-05-12T09:30:38.291Z,68.93
2023-05-12T09:33:06.692Z,70.95
2023-05-12T09:35:38.555Z,69.48
2023-05-12T09:38:14.542Z,69.81
2023-05-12T09:40:41.040Z,68.13
2023-05-12T09:43:08.202Z,66.44
2023-05-12T09:45:36.381Z,67.26
2023-05-12T09:48:10.823Z,67.87
2023-05-12T09:50:51.398Z,67.96
2023-05-12T09:53:19.348Z,68.65
2023-05-12T09:55:47.296Z,69.20
2023-05-12T09:58:16.290Z,67.61
2023-05-12T10:01:12.854Z,68.56
2023-05-12T10:03:31.619Z,65.28
2023-05-12T10:06:01.462Z,66.30
2023-05-12T10:08:33.909Z,64.43
2023-05-12T10:11:02.351Z,63.40
2023-05-12T10:13:29.390Z,64.66
2023-05-12T10:15:57.583Z,62.77
2023-05-12T10:18:24.741Z,61.86
2023-05-12T10:20:53.547Z,62.32
2023-05-12T10:23:20.207Z,61.93
2023-05-12T10:25:47.732Z,59.31
2023-05-12T10:28:14.188Z,61.47
2023-05-12T10:30:41.932Z,58.54
2023-05-12T10:33:11.314Z,61.81
2023-05-12T10:35:40.050Z,59.86
2023-05-12T10:38:17.635Z,58.87
2023-05-12T10:40:53.454Z,57.75
2023-05-12T10:43:24.577Z,57.81
2023-05-12T10:46:15.999Z,57.25
2023-05-12T10:49:13.004Z,55.01
2023-05-12T10:51:42.357Z,56.35
2023-05-12T10:54:11.246Z,53.59
2023-05-12T10:56:38.377Z,55.86
2023-05-12T10:59:31.920Z,55.50
2023-05-12T11:02:04.062Z,55.95
2023-05-12T11:04:37.970Z,54.30
2023-05-12T11:07:06.208Z,53.35
2023-05-12T11:09:36.567Z,54.94
2023-05-12T11:12:08.437Z,55.35
2023-05-12T11:14:36.423Z,54.21
2023-05-12T11:17:03.149Z,50.52
2023-05-12T11:19:30.466Z,52.49
2023-05-12T11:21:56.937Z,52.41
2023-05-12T11:24:23.883Z,52.41
2023-05-12T11:26:52.009Z,50.78
2023-05-12T11:29:19.888Z,53.58
2023-05-12T11:31:53.320Z,53.17
2023-05-12T11:34:24.107Z,52.03
2023-05-12T11:36:52.792Z,50.29
2023-05-12T11:39:24.810Z,51.02
2023-05-12T11:41:56.821Z,53.20
2023-05-12T11:44:32.509Z,50.55
2023-05-12T11:47:11.180Z,51.71
2023-05-12T11:49:51.479Z,51.11
2023-05-12T11:52:19.761Z,50.42
2023-05-12T11:54:55.840Z,49.70
2023-05-12T11:57:29.627Z,49.87
2023-05-12T12:00:07.649Z,49.03
2023-05-12T12:02:36.667Z,48.25
2023-05-12T12:05:03.487Z,47.20
2023-05-12T12:07:34.883Z,47.01
2023-05-12T12:10:12.669Z,48.71
2023-05-12T12:12:39.511Z,47.58
2023-05-12T12:15:06.561Z,47.67
2023-05-12T12:17:32.987Z,46.41
2023-05-12T12:19:59.480Z,48.21
2023-05-12T12:22:26.015Z,47.40
2023-05-12T12:24:52.748Z,46.30
2023-05-12T12:27:19.236Z,48.79
2023-05-12T12:29:45.602Z,47.13
2023-05-12T12:32:12.107Z,44.38
2023-05-12T12:34:38.448Z,45.43
2023-05-12T12:37:05.461Z,46.42
2023-05-12T12:39:31.941Z,45.92
2023-05-12T12:41:58.908Z,47.03
2023-05-12T12:44:25.310Z,48.45
2023-05-12T12:46:51.761Z,49.04
2023-05-12T12:49:18.234Z,47.80
2023-05-12T12:51:46.595Z,48.13
2023-05-12T12:54:14.497Z,46.50
2023-05-12T12:56:40.959Z,47.55
2023-05-12T12:59:07.584Z,48.02
2023-05-12T13:01:34.202Z,47.60
2023-05-12T13:04:01.106Z,48.36
2023-05-12T13:06:27.678Z,46.40
2023-05-12T13:08:54.142Z,45.41
2023-05-12T13:11:20.564Z,45.63
2023-05-12T13:13:47.046Z,46.16
2023-05-12T13:16:13.581Z,45.69
2023-05-12T13:18:40.079Z,46.29
2023-05-12T13:21:06.522Z,46.97
2023-05-12T13:23:32.933Z,47.82
2023-05-12T13:25:59.382Z,48.85
2023-05-12T13:28:25.812Z,47.07
2023-05-12T13:30:52.737Z,48.39
2023-05-12T13:33:19.365Z,46.54
2023-05-12T13:35:45.800Z,45.27
2023-05-12T13:38:12.333Z,47.36
2023-05-12T13:40:38.770Z,47.16
2023-05-12T13:43:05.150Z,46.84
2023-05-12T13:45:31.588Z,45.53
2023-05-12T13:47:58.057Z,46.35
2023-05-12T13:50:24.562Z,46.24
2023-05-12T13:52:50.967Z,43.09
2023-05-12T13:55:21.404Z,43.41
2023-05-12T13:57:48.891Z,42.09
2023-05-12T14:00:17.262Z,43.68
2023-05-12T14:02:43.886Z,43.00
2023-05-12T14:05:10.688Z,42.79
2023-05-12T14:07:37.134Z,44.72
2023-05-12T14:10:03.654Z,42.75
2023-05-12T14:12:30.142Z,42.74
2023-05-12T14:15:04.488Z,42.60
2023-05-12T14:17:38.575Z,43.25
2023-05-12T14:20:06.526Z,44.37
2023-05-12T14:22:33.471Z,43.10
2023-05-12T14:25:00.519Z,42.32
2023-05-12T14:27:27.004Z,44.19
2023-05-12T14:29:53.489Z,43.92
2023-05-12T14:32:19.989Z,44.14
2023-05-12T14:34:46.366Z,43.88
2023-05-12T14:37:12.771Z,42.87
2023-05-12T14:39:39.128Z,44.13
2023-05-12T14:42:05.758Z,42.69
2023-05-12T14:44:32.292Z,40.87
2023-05-12T14:46:58.768Z,39.65
2023-05-12T14:49:25.165Z,40.42
2023-05-12T14:51:51.590Z,38.47
2023-05-12T14:54:25.357Z,41.78
2023-05-12T14:56:52.481Z,41.38
2023-05-12T14:59:19.048Z,40.18
2023-05-12T15:01:45.527Z,41.06
2023-05-12T15:04:12.022Z,40.87
2023-05-12T15:06:38.389Z,39.90
2023-05-12T15:09:04.772Z,41.08
2023-05-12T15:11:31.179Z,41.90
2023-05-12T15:13:57.731Z,41.83
2023-05-12T15:16:26.187Z,42.17
2023-05-12T15:18:52.759Z,42.80
2023-05-12T15:21:19.231Z,42.95
2023-05-12T15:23:45.690Z,42.59
2023-05-12T15:28:41.373Z,41.21
2023-05-12T15:31:08.189Z,39.34
2023-05-12T15:33:34.815Z,39.97
2023-05-12T15:36:01.210Z,38.70
2023-05-12T15:38:27.607Z,36.46
2023-05-12T15:40:54.488Z,38.75
2023-05-12T15:43:20.866Z,39.69
2023-05-12T15:45:47.344Z,44.20
2023-05-12T15:48:13.928Z,48.43
2023-05-12T15:50:40.457Z,51.51
2023-05-12T15:53:07.063Z,51.86
2023-05-12T15:55:33.617Z,54.86
2023-05-12T15:58:01.206Z,55.03
2023-05-12T16:00:28.083Z,55.21
2023-05-12T16:02:54.866Z,56.59
2023-05-12T16:05:23.872Z,57.52
2023-05-12T16:07:50.453Z,56.75
2023-05-12T16:10:17.465Z,58.45
2023-05-12T16:12:45.829Z,59.14
2023-05-12T16:15:12.657Z,59.56
2023-05-12T16:17:39.161Z,58.56
2023-05-12T16:20:07.707Z,58.35
2023-05-12T16:22:34.397Z,56.70
2023-05-12T16:25:00.783Z,57.26
2023-05-12T16:27:27.162Z,57.31
2023-05-12T16:29:53.677Z,58.78
2023-05-12T16:32:20.297Z,58.96
2023-05-12T16:34:47.022Z,59.44
2023-05-12T16:37:13.827Z,60.34
2023-05-12T16:39:40.182Z,60.27
2023-05-12T16:42:06.943Z,60.45
2023-05-12T16:44:33.531Z,60.52
2023-05-12T16:46:59.904Z,61.23
2023-05-12T16:49:26.251Z,60.73
2023-05-12T16:51:52.734Z,60.32
2023-05-12T16:54:19.123Z,59.44
2023-05-12T16:56:45.592Z,58.81
2023-05-12T16:59:11.968Z,59.20
2023-05-12T17:01:39.446Z,59.48
2023-05-12T17:04:07.916Z,58.27
2023-05-12T17:06:34.463Z,59.17
2023-05-12T17:09:01.393Z,58.61
2023-05-12T17:11:27.771Z,59.40
2023-05-12T17:13:54.152Z,59.45
2023-05-12T17:16:20.644Z,60.57
2023-05-12T17:21:16.485Z,59.00
2023-05-12T17:23:42.945Z,58.35
2023-05-12T17:26:09.331Z,58.50
2023-05-12T17:28:35.725Z,58.95
2023-05-12T17:31:02.209Z,59.10
2023-05-12T17:33:29.425Z,59.31
2023-05-12T17:36:10.799Z,59.06
2023-05-12T17:38:39.886Z,59.97
2023-05-12T17:41:06.382Z,60.60
2023-05-12T17:43:32.722Z,58.85
2023-05-12T17:46:00.408Z,58.60
2023-05-12T17:48:26.872Z,57.88
2023-05-12T17:50:53.312Z,56.78
2023-05-12T17:53:19.626Z,56.40
2023-05-12T17:55:46.089Z,56.14
2023-05-12T17:58:12.598Z,55.75
2023-05-12T18:00:39.047Z,55.86
2023-05-12T18:03:05.601Z,55.94
2023-05-12T18:05:32.706Z,56.09
2023-05-12T18:08:00.190Z,56.35
2023-05-12T18:10:26.817Z,56.72
2023-05-12T18:12:53.778Z,56.49
2023-05-12T18:15:24.204Z,57.13
2023-05-12T18:17:50.656Z,56.60
2023-05-12T18:20:17.664Z,56.16
2023-05-12T18:22:44.315Z,55.75
2023-05-12T18:25:12.699Z,55.30
2023-05-12T18:27:39.010Z,54.68
2023-05-12T18:30:05.953Z,54.93
2023-05-12T18:32:32.849Z,54.41
2023-05-12T18:34:59.606Z,54.47
2023-05-12T18:37:25.949Z,55.11
2023-05-12T18:39:54.303Z,55.03
2023-05-12T18:42:20.947Z,55.65
2023-05-12T18:44:47.352Z,55.41
2023-05-12T18:47:13.734Z,55.95
2023-05-12T18:49:40.066Z,55.90
2023-05-12T18:52:06.468Z,55.76
2023-05-12T18:54:32.830Z,56.33
2023-05-12T18:56:59.160Z,56.26
2023-05-12T18:59:25.549Z,56.29
2023-05-12T19:01:52.009Z,56.87
2023-05-12T19:04:19.537Z,57.32
2023-05-12T19:06:46.038Z,57.26
2023-05-12T19:09:12.458Z,57.40
2023-05-12T19:11:38.876Z,57.75
2023-05-12T19:14:05.437Z,58.06
2023-05-12T19:16:33.640Z,58.36
2023-05-12T19:19:01.811Z,58.36
2023-05-12T19:21:28.390Z,58.62
2023-05-12T19:23:55.802Z,58.97
2023-05-12T19:26:22.166Z,59.36
2023-05-12T19:28:48.572Z,60.13
2023-05-12T19:31:15.019Z,60.18
2023-05-12T19:33:41.536Z,60.96
2023-05-12T19:36:08.092Z,60.72
2023-05-12T19:38:34.542Z,60.95
2023-05-12T19:41:00.968Z,61.16
2023-05-12T19:43:27.354Z,61.84
2023-05-12T19:45:54.183Z,62.87
2023-05-12T19:48:21.293Z,63.60
2023-05-12T19:50:47.812Z,63.73
2023-05-12T19:53:14.193Z,64.05
2023-05-12T19:55:40.655Z,64.49
2023-05-12T19:58:08.839Z,64.93
2023-05-12T20:00:36.448Z,64.81
2023-05-12T20:03:05.549Z,65.38
2023-05-12T20:05:35.448Z,65.62
2023-05-12T20:08:01.808Z,65.82
2023-05-12T20:10:28.164Z,65.85
2023-05-12T20:12:55.186Z,65.75
2023-05-12T20:15:21.925Z,66.16
2023-05-12T20:17:48.585Z,66.66
2023-05-12T20:20:15.054Z,66.89
2023-05-12T20:22:41.456Z,66.84
2023-05-12T20:25:08.227Z,67.60
2023-05-12T20:27:34.604Z,67.88
2023-05-12T20:30:01.057Z,67.93
2023-05-12T20:32:27.520Z,68.30
2023-05-12T20:34:53.987Z,68.50
2023-05-12T20:37:20.444Z,68.39
2023-05-12T20:39:46.919Z,68.90
2023-05-12T20:42:13.931Z,69.02
2023-05-12T20:44:40.658Z,69.74
2023-05-12T20:47:07.224Z,69.51
2023-05-12T20:49:33.702Z,69.79
2023-05-12T20:52:00.174Z,69.85
2023-05-12T20:54:26.641Z,69.85
2023-05-12T20:56:53.037Z,70.16
2023-05-12T20:59:19.990Z,70.05
2023-05-12T21:01:46.622Z,70.19
2023-05-12T21:04:13.255Z,70.21
2023-05-12T21:06:40.219Z,70.08
2023-05-12T21:09:06.655Z,70.15
2023-05-12T21:11:33.183Z,69.85
2023-05-12T21:13:59.781Z,69.82
2023-05-12T21:16:26.314Z,69.84
2023-05-12T21:18:52.841Z,70.01
2023-05-12T21:21:19.302Z,69.60
2023-05-12T21:23:46.172Z,69.80
2023-05-12T21:26:12.562Z,69.73
2023-05-12T21:28:38.994Z,69.66
2023-05-12T21:31:05.448Z,69.65
2023-05-12T21:33:33.222Z,69.92
2023-05-12T21:35:59.637Z,69.89
2023-05-12T21:38:26.057Z,69.99
2023-05-12T21:40:52.826Z,70.15
2023-05-12T21:43:19.230Z,70.28
2023-05-12T21:45:45.840Z,70.36
2023-05-12T21:48:12.683Z,70.56
2023-05-12T21:50:39.167Z,70.61
2023-05-12T21:53:05.604Z,70.82
2023-05-12T21:55:32.494Z,71.01
2023-05-12T21:57:58.845Z,71.30
2023-05-12T22:00:26.071Z,71.32
2023-05-12T22:02:52.574Z,71.20
2023-05-12T22:05:19.123Z,71.28
2023-05-12T22:07:46.454Z,71.47
2023-05-12T22:10:13.102Z,71.41
2023-05-12T22:12:40.245Z,71.44
2023-05-12T22:15:07.668Z,71.47
2023-05-12T22:17:34.099Z,71.52
2023-05-12T22:20:00.464Z,71.16
2023-05-12T22:22:26.953Z,71.03
2023-05-12T22:24:53.453Z,71.22
2023-05-12T22:27:22.319Z,71.31
2023-05-12T22:29:48.964Z,71.27
2023-05-12T22:32:16.502Z,70.95
2023-05-12T22:34:42.939Z,70.75
2023-05-12T22:37:09.369Z,70.76
2023-05-12T22:39:35.746Z,70.18
2023-05-12T22:42:03.181Z,70.13
2023-05-12T22:44:29.767Z,69.89
2023-05-12T22:46:56.214Z,69.84
2023-05-12T22:49:22.607Z,69.67
2023-05-12T22:51:49.009Z,69.59
2023-05-12T22:54:15.746Z,69.68
2023-05-12T22:56:42.312Z,69.64
2023-05-12T22:59:08.705Z,69.88
2023-05-12T23:01:35.087Z,69.56
2023-05-12T23:04:01.499Z,69.24
2023-05-12T23:06:27.933Z,68.84
2023-05-12T23:08:54.418Z,68.63
2023-05-12T23:11:21.412Z,68.42
2023-05-12T23:13:47.802Z,68.64
2023-05-12T23:16:14.207Z,68.63
2023-05-12T23:18:40.670Z,68.63
2023-05-12T23:21:07.199Z,68.43
2023-05-12T23:23:33.602Z,68.56
2023-05-12T23:26:00.023Z,68.47
2023-05-12T23:28:26.353Z,68.18
2023-05-12T23:30:52.717Z,68.09
2023-05-12T23:33:19.159Z,68.08
2023-05-12T23:35:45.623Z,68.08
2023-05-12T23:38:11.954Z,67.87
2023-05-12T23:40:39.339Z,67.80
2023-05-12T23:43:06.668Z,67.74
2023-05-12T23:45:33.461Z,67.52
2023-05-12T23:48:00.847Z,67.56
2023-05-12T23:50:27.342Z,67.34
2023-05-12T23:52:53.955Z,67.17
2023-05-12T23:55:21.534Z,67.10
2023-05-12T23:57:48.829Z,66.94
